M I D A S
Marine Information and Data Acquisition System
Tripno 1603 of the Zeeleeuw from 2008-09-08 06:17:00 to 2008-09-08 12:45:18
Back to CruiseResearch ActivitiesStationsMapUnderway DataData graphs

EquipmentUnitsComment
TimeDGPSUTC
LatitudeDGPSDM.mWGS84
LongitudeDGPSDM.mWGS84
HeadingGyrodeg 
SOGDGPSknotsSpeed over ground
COGDGPSdegCourse over ground
DepthEcho soundermeters200 kHz
Missing or incorrect values are displayed as -999
Navigation data collected by the RV Zeeleeuw from 2008-09-08 06:17:33 to 2008-09-08 12:58:44
Time Latitude Longitude Heading SOG COG Depth
2008-09-08 06:18:38 51°13.622 2°56.048 115.5 0.1 187 9.9
2008-09-08 06:19:38 51°13.631 2°56.016 109.7 2.5 293 -999
2008-09-08 06:20:38 51°13.653 2°55.928 117.5 4.5 296 -999
2008-09-08 06:21:38 51°13.698 2°55.819 128.4 5.3 309 -999
2008-09-08 06:22:38 51°13.76 2°55.719 143.3 5.4 322 -999
2008-09-08 06:23:38 51°13.837 2°55.645 162 4.9 340 -999
2008-09-08 06:24:38 51°13.899 2°55.632 192.7 2.9 6 13
2008-09-08 06:25:38 51°13.935 2°55.65 218.5 1.9 27 13.2
2008-09-08 06:26:38 51°13.957 2°55.672 236.9 1.4 40 13.5
2008-09-08 06:27:36 51°13.968 2°55.694 258.6 0.9 59 13.3
2008-09-08 06:28:35 51°13.974 2°55.7 286.2 0.5 334 13
2008-09-08 06:29:34 51°13.98 2°55.697 309.1 0.4 332 13.2
2008-09-08 06:30:34 51°14.014 2°55.634 310.1 6.6 311 13.2
2008-09-08 06:31:34 51°14.105 2°55.463 312.3 9.3 314 13.2
2008-09-08 06:32:34 51°14.227 2°55.306 324.6 9.6 322 12.7
2008-09-08 06:33:34 51°14.336 2°55.123 308.4 9.5 307 13.1
2008-09-08 06:34:34 51°14.419 2°54.92 302.4 8 307 12.9
2008-09-08 06:35:34 51°14.489 2°54.777 301.7 6.2 311 12.8
2008-09-08 06:36:34 51°14.552 2°54.655 296.2 5.7 304 12.2
2008-09-08 06:37:34 51°14.605 2°54.528 298.1 5.8 305 12.2
2008-09-08 06:38:34 51°14.657 2°54.399 292.2 5.7 299 12.2
2008-09-08 06:39:34 51°14.683 2°54.265 272 5.3 279 12.3
2008-09-08 06:40:34 51°14.696 2°54.125 272.1 5.4 279 12.4
2008-09-08 06:41:34 51°14.71 2°53.983 272.2 5.5 279 12.9
2008-09-08 06:42:34 51°14.721 2°53.841 269.5 5.4 276 12.6
2008-09-08 06:43:34 51°14.727 2°53.697 269.8 5.5 275 12.2
2008-09-08 06:44:34 51°14.732 2°53.551 266.8 5.4 270 12.3
2008-09-08 06:45:34 51°14.735 2°53.405 268 5.5 273 12
2008-09-08 06:46:34 51°14.74 2°53.259 268.5 5.5 273 11.2
2008-09-08 06:47:34 51°14.746 2°53.11 267.8 5.5 272 11.3
2008-09-08 06:48:34 51°14.749 2°52.966 264 5.3 268 11.2
2008-09-08 06:49:34 51°14.734 2°52.83 252.9 5.2 257 11.4
2008-09-08 06:50:34 51°14.712 2°52.695 253.2 5.2 258 11.2
2008-09-08 06:51:34 51°14.693 2°52.559 253.9 5.3 259 11.3
2008-09-08 06:52:34 51°14.673 2°52.424 252.9 5.1 256 11.3
2008-09-08 06:53:34 51°14.649 2°52.293 249.7 5.2 254 11.4
2008-09-08 06:54:34 51°14.625 2°52.161 248.9 5 251 11.3
2008-09-08 06:55:34 51°14.599 2°52.032 249.8 5.2 254 11.3
2008-09-08 06:56:34 51°14.575 2°51.899 249.6 5.3 253 11.2
2008-09-08 06:57:34 51°14.552 2°51.766 250.5 5.1 254 11.3
2008-09-08 06:58:34 51°14.53 2°51.633 250.7 5.2 255 11.4
2008-09-08 06:59:34 51°14.502 2°51.503 247.4 5.3 252 11.3
2008-09-08 07:00:34 51°14.474 2°51.372 247.3 5.1 249 11.2
2008-09-08 07:01:34 51°14.445 2°51.244 247 5.2 250 11.1
2008-09-08 07:02:34 51°14.416 2°51.116 247.5 5.2 252 11.2
2008-09-08 07:03:34 51°14.387 2°50.983 246.7 5.2 250 11.3
2008-09-08 07:04:34 51°14.354 2°50.857 243.5 5.1 246 11.2
2008-09-08 07:05:34 51°14.321 2°50.732 244.4 5.1 246 11.1
2008-09-08 07:06:34 51°14.288 2°50.606 244.8 5.2 248 11.2
2008-09-08 07:07:34 51°14.256 2°50.477 244.5 5.2 246 11
2008-09-08 07:08:34 51°14.221 2°50.349 243.6 5.3 245 11.1
2008-09-08 07:09:34 51°14.188 2°50.223 244.5 5.1 249 11.1
2008-09-08 07:10:34 51°14.154 2°50.097 243.8 5.2 246 11
2008-09-08 07:11:34 51°14.12 2°49.971 243.8 5.2 246 10.9
2008-09-08 07:12:34 51°14.086 2°49.843 244.2 5.2 247 10.8
2008-09-08 07:13:34 51°14.053 2°49.716 244.7 5.1 250 10.8
2008-09-08 07:14:34 51°14.02 2°49.59 244.7 5.2 250 10.9
2008-09-08 07:15:34 51°13.987 2°49.462 244.5 5.2 245 11.1
2008-09-08 07:16:34 51°13.953 2°49.337 241.2 5.2 244 11.2
2008-09-08 07:17:34 51°13.913 2°49.213 239.7 5.1 241 10.9
2008-09-08 07:18:34 51°13.873 2°49.091 241 5.2 245 11
2008-09-08 07:19:34 51°13.834 2°48.969 239.6 5.2 239 11.2
2008-09-08 07:20:34 51°13.794 2°48.845 240.8 5.2 245 11.6
2008-09-08 07:21:34 51°13.754 2°48.723 240.4 5.2 243 11.4
2008-09-08 07:22:34 51°13.714 2°48.599 240.1 5.2 243 11.4
2008-09-08 07:23:34 51°13.674 2°48.475 239.7 5.4 244 11.6
2008-09-08 07:24:34 51°13.634 2°48.351 239.8 5.3 241 11.4
2008-09-08 07:25:34 51°13.593 2°48.228 239.5 5.2 241 11.3
2008-09-08 07:26:34 51°13.554 2°48.104 241.2 5.2 244 11.7
2008-09-08 07:27:34 51°13.513 2°47.983 238 5.2 240 11.7
2008-09-08 07:28:34 51°13.472 2°47.862 238.3 5.2 240 11.6
2008-09-08 07:29:34 51°13.447 2°47.73 260.7 5.2 269 11.5
2008-09-08 07:30:34 51°13.472 2°47.593 294.7 5.5 303 11.9
2008-09-08 07:31:34 51°13.536 2°47.481 311.9 6 317 12.7
2008-09-08 07:32:34 51°13.608 2°47.37 309.4 6 315 12.6
2008-09-08 07:33:34 51°13.677 2°47.256 308.8 6.1 314 12.6
2008-09-08 07:34:34 51°13.746 2°47.139 307 6.1 312 12.8
2008-09-08 07:35:34 51°13.82 2°47.031 320.7 6.1 326 11.3
2008-09-08 07:36:34 51°13.912 2°46.964 336.4 6.2 341 11.9
2008-09-08 07:37:34 51°14.008 2°46.911 335.4 6.1 340 10.5
2008-09-08 07:38:34 51°14.102 2°46.855 335.4 5.9 340 10
2008-09-08 07:39:34 51°14.197 2°46.8 334.8 6 341 10.5
2008-09-08 07:40:34 51°14.291 2°46.742 333.1 6.1 338 12
2008-09-08 07:41:34 51°14.384 2°46.683 333.1 5.8 337 13
2008-09-08 07:42:34 51°14.473 2°46.627 333.6 5.6 338 13.9
2008-09-08 07:43:34 51°14.561 2°46.575 333.3 5.5 338 14.1
2008-09-08 07:44:34 51°14.647 2°46.523 333.4 5.6 339 13.7
2008-09-08 07:45:34 51°14.732 2°46.47 333.2 5.4 339 11
2008-09-08 07:46:34 51°14.818 2°46.417 333.3 5.4 339 10.2
2008-09-08 07:47:34 51°14.903 2°46.362 332.2 5.4 338 10.7
2008-09-08 07:48:34 51°14.987 2°46.309 332.8 5.5 337 11.8
2008-09-08 07:49:34 51°15.073 2°46.254 333.7 5.6 340 12.7
2008-09-08 07:50:34 51°15.159 2°46.203 333.4 5.5 338 14
2008-09-08 07:51:34 51°15.245 2°46.151 334 5.7 339 15.3
2008-09-08 07:52:34 51°15.325 2°46.089 317.8 5.2 324 16.1
2008-09-08 07:53:34 51°15.392 2°46.005 312.7 5.2 321 16.7
2008-09-08 07:54:34 51°15.456 2°45.918 308.5 5 318 17.6
2008-09-08 07:55:34 51°15.518 2°45.825 307.3 5.1 314 18.4
2008-09-08 07:56:34 51°15.574 2°45.728 300.7 5 311 18.8
2008-09-08 07:57:34 51°15.625 2°45.627 299.5 4.9 308 18.2
2008-09-08 07:58:34 51°15.674 2°45.52 294.8 5 303 17
2008-09-08 07:59:34 51°15.718 2°45.408 288.1 4.9 295 14.9
2008-09-08 08:00:34 51°15.744 2°45.29 275.9 4.7 287 13.2
2008-09-08 08:01:34 51°15.765 2°45.169 275.4 4.7 286 13
2008-09-08 08:02:34 51°15.778 2°45.049 263.4 4.4 270 13.5
2008-09-08 08:03:34 51°15.777 2°44.932 260.6 4.5 268 13.5
2008-09-08 08:04:34 51°15.776 2°44.811 261.4 4.6 269 13.5
2008-09-08 08:05:34 51°15.776 2°44.689 262 4.6 271 13.4
2008-09-08 08:06:34 51°15.777 2°44.568 262.1 4.5 271 13.6
2008-09-08 08:07:34 51°15.778 2°44.447 263.7 4.6 274 13.2
2008-09-08 08:08:34 51°15.779 2°44.324 263.1 4.6 269 13
2008-09-08 08:09:34 51°15.78 2°44.203 262.7 4.4 271 12.7
2008-09-08 08:10:34 51°15.781 2°44.082 261.9 4.5 270 12.5
2008-09-08 08:11:35 51°15.777 2°43.961 257.8 4.4 266 12.4
2008-09-08 08:12:34 51°15.769 2°43.847 254.7 4.4 262 12.6
2008-09-08 08:13:34 51°15.754 2°43.734 250.5 4.5 257 12.2
2008-09-08 08:14:34 51°15.736 2°43.609 251.8 5 259 12.4
2008-09-08 08:15:34 51°15.719 2°43.478 251.7 5 255 11.9
2008-09-08 08:16:34 51°15.699 2°43.346 251.4 5.2 257 12.7
2008-09-08 08:17:34 51°15.679 2°43.214 251.4 5.3 257 12.3
2008-09-08 08:18:34 51°15.66 2°43.083 252.4 5.3 258 12.8
2008-09-08 08:19:34 51°15.641 2°42.947 252.6 5.4 260 12.7
2008-09-08 08:20:34 51°15.624 2°42.809 252.6 5.2 259 11.8
2008-09-08 08:21:34 51°15.606 2°42.672 252.5 5.3 257 12.3
2008-09-08 08:22:34 51°15.586 2°42.533 251.9 5.5 258 12.3
2008-09-08 08:23:34 51°15.566 2°42.397 251.5 5.2 256 11.3
2008-09-08 08:24:34 51°15.546 2°42.262 253.2 5.3 260 12
2008-09-08 08:25:34 51°15.526 2°42.126 249.6 5.3 255 11.8
2008-09-08 08:26:34 51°15.502 2°41.993 248.5 5.3 256 11
2008-09-08 08:27:34 51°15.48 2°41.859 250.1 5.2 254 11.1
2008-09-08 08:28:34 51°15.457 2°41.725 251.1 5.3 256 11.3
2008-09-08 08:29:34 51°15.435 2°41.59 250.1 5.3 255 11.5
2008-09-08 08:30:34 51°15.408 2°41.457 244.7 5.4 252 11.4
2008-09-08 08:31:34 51°15.372 2°41.33 239.5 5.3 242 11.7
2008-09-08 08:32:34 51°15.328 2°41.208 234.6 5.3 237 12
2008-09-08 08:33:34 51°15.282 2°41.089 234.1 5.2 237 11.9
2008-09-08 08:34:34 51°15.235 2°40.973 235.1 5.1 236 12.2
2008-09-08 08:35:34 51°15.188 2°40.857 233.7 5.2 238 12.7
2008-09-08 08:36:34 51°15.143 2°40.741 235.1 5.1 237 12.6
2008-09-08 08:37:34 51°15.097 2°40.623 234.9 5.3 239 12.7
2008-09-08 08:38:34 51°15.051 2°40.503 234.9 5.3 238 12.9
2008-09-08 08:39:34 51°15.004 2°40.384 235 5.2 236 13.1
2008-09-08 08:40:34 51°14.957 2°40.265 235.5 5.4 239 13.8
2008-09-08 08:41:35 51°14.91 2°40.144 235.5 5.3 236 14
2008-09-08 08:42:34 51°14.864 2°40.025 235.7 5.4 237 14.1
2008-09-08 08:43:35 51°14.816 2°39.903 234.6 5.3 237 14.8
2008-09-08 08:44:34 51°14.77 2°39.784 235.8 5.5 237 14.9
2008-09-08 08:45:34 51°14.721 2°39.661 235.8 5.5 239 15.7
2008-09-08 08:46:34 51°14.676 2°39.535 238 5.6 240 15.6
2008-09-08 08:47:34 51°14.631 2°39.409 238 5.6 241 15.8
2008-09-08 08:48:34 51°14.584 2°39.286 236.3 5.4 237 16.7
2008-09-08 08:49:34 51°14.537 2°39.163 236.8 5.5 240 17.4
2008-09-08 08:50:34 51°14.488 2°39.041 231.2 5.4 235 17.6
2008-09-08 08:51:34 51°14.43 2°38.928 228.3 5.5 228 17.6
2008-09-08 08:52:35 51°14.371 2°38.814 229.1 5.5 230 18
2008-09-08 08:53:34 51°14.316 2°38.701 229.2 5.6 231 17.1
2008-09-08 08:54:35 51°14.257 2°38.585 228.4 5.5 230 16.7
2008-09-08 08:55:34 51°14.199 2°38.472 229.3 5.6 235 17.4
2008-09-08 08:56:35 51°14.14 2°38.356 228.5 5.6 231 17.9
2008-09-08 08:57:34 51°14.084 2°38.244 229.8 5.5 233 17.9
2008-09-08 08:58:35 51°14.027 2°38.128 229.4 5.5 230 17
2008-09-08 08:59:35 51°13.968 2°38.014 229.5 5.5 232 16.5
2008-09-08 09:00:35 51°13.918 2°37.888 237.7 5.6 240 14.6
2008-09-08 09:01:35 51°13.872 2°37.758 237.1 5.6 240 17.2
2008-09-08 09:02:34 51°13.827 2°37.629 237.5 5.5 238 17.7
2008-09-08 09:03:35 51°13.781 2°37.497 238.7 5.7 242 17.4
2008-09-08 09:04:34 51°13.739 2°37.366 239.5 5.7 242 17.6
2008-09-08 09:05:34 51°13.7 2°37.23 242.9 5.7 247 18.5
2008-09-08 09:06:35 51°13.662 2°37.09 243.4 5.7 246 17.2
2008-09-08 09:07:34 51°13.625 2°36.954 244.4 5.6 246 17.7
2008-09-08 09:08:34 51°13.588 2°36.817 243.8 5.7 247 18.3
2008-09-08 09:09:34 51°13.554 2°36.676 247.4 5.7 250 18.2
2008-09-08 09:10:34 51°13.522 2°36.533 246.8 5.7 251 16.7
2008-09-08 09:11:34 51°13.49 2°36.389 246 5.8 249 17.3
2008-09-08 09:12:34 51°13.457 2°36.246 246.7 5.9 251 17.4
2008-09-08 09:13:34 51°13.423 2°36.101 246 5.8 249 17.3
2008-09-08 09:14:34 51°13.389 2°35.955 247 5.8 250 17.3
2008-09-08 09:15:35 51°13.355 2°35.809 246.2 5.8 248 17.5
2008-09-08 09:16:34 51°13.321 2°35.668 246.4 5.6 249 17.4
2008-09-08 09:17:35 51°13.288 2°35.524 246.7 5.7 251 17.5
2008-09-08 09:18:34 51°13.255 2°35.383 245.7 5.8 251 17.2
2008-09-08 09:19:35 51°13.221 2°35.239 245.8 5.8 249 17.1
2008-09-08 09:20:34 51°13.188 2°35.099 246.7 5.8 251 17.1
2008-09-08 09:21:35 51°13.155 2°34.956 246 5.6 249 17.2
2008-09-08 09:22:35 51°13.122 2°34.816 246.9 5.7 250 17.6
2008-09-08 09:23:34 51°13.089 2°34.68 246 5.7 249 17.4
2008-09-08 09:24:35 51°13.056 2°34.535 246.7 5.7 250 17.1
2008-09-08 09:25:34 51°13.024 2°34.398 246.2 5.6 250 16.9
2008-09-08 09:26:35 51°12.991 2°34.256 247 5.6 251 16.6
2008-09-08 09:27:34 51°12.961 2°34.118 245.9 5.5 249 16.2
2008-09-08 09:28:35 51°12.928 2°33.977 246.2 5.6 250 15.8
2008-09-08 09:29:35 51°12.897 2°33.837 247.1 5.6 251 15
2008-09-08 09:30:35 51°12.865 2°33.696 246.5 5.7 251 14.2
2008-09-08 09:31:35 51°12.833 2°33.556 245.5 5.6 250 14.7
2008-09-08 09:32:35 51°12.802 2°33.415 245.9 5.7 252 15.1
2008-09-08 09:33:35 51°12.771 2°33.274 246 5.6 248 14.8
2008-09-08 09:34:35 51°12.738 2°33.132 245.8 5.7 250 15.8
2008-09-08 09:35:35 51°12.705 2°32.99 246.2 5.8 251 16.8
2008-09-08 09:36:34 51°12.673 2°32.85 246.7 5.7 250 17.2
2008-09-08 09:37:35 51°12.64 2°32.705 246.6 5.7 251 18.2
2008-09-08 09:38:35 51°12.608 2°32.563 245.7 5.7 251 19.2
2008-09-08 09:39:35 51°12.575 2°32.422 246.3 5.7 249 20.5
2008-09-08 09:40:36 51°12.54 2°32.278 246.1 5.7 248 22
2008-09-08 09:41:35 51°12.507 2°32.138 246.5 5.8 250 21.7
2008-09-08 09:42:36 51°12.472 2°31.992 246.8 5.8 251 21.9
2008-09-08 09:43:35 51°12.437 2°31.851 245.7 5.8 246 22.2
2008-09-08 09:44:35 51°12.401 2°31.708 246.2 5.8 249 22.2
2008-09-08 09:45:36 51°12.363 2°31.561 245.5 5.8 248 23.8
2008-09-08 09:46:35 51°12.326 2°31.422 245.2 5.8 244 22.2
2008-09-08 09:47:35 51°12.289 2°31.277 247 5.9 249 22.4
2008-09-08 09:48:35 51°12.252 2°31.132 246.2 5.9 246 22.2
2008-09-08 09:49:36 51°12.215 2°30.986 246.3 5.8 250 22.6
2008-09-08 09:50:35 51°12.18 2°30.845 246.5 5.9 249 21.9
2008-09-08 09:51:35 51°12.143 2°30.701 246 5.9 246 21.7
2008-09-08 09:52:35 51°12.106 2°30.556 246.7 5.9 248 21.8
2008-09-08 09:53:35 51°12.068 2°30.41 245.3 6 245 21.8
2008-09-08 09:54:35 51°12.029 2°30.264 246.6 6 248 22
2008-09-08 09:55:35 51°11.991 2°30.118 245.7 6 245 21.7
2008-09-08 09:56:36 51°11.951 2°29.97 246 6 247 21.6
2008-09-08 09:57:35 51°11.913 2°29.828 245.9 6 246 21.1
2008-09-08 09:58:35 51°11.874 2°29.681 246.5 6 249 21
2008-09-08 09:59:35 51°11.835 2°29.533 246 6.2 247 20.8
2008-09-08 10:00:36 51°11.794 2°29.382 246.4 6.1 248 20.1
2008-09-08 10:01:35 51°11.755 2°29.234 247.2 6.1 246 19.5
2008-09-08 10:02:35 51°11.715 2°29.086 246 6.1 246 19.3
2008-09-08 10:03:36 51°11.675 2°28.934 246.2 6.1 247 18.9
2008-09-08 10:04:35 51°11.638 2°28.788 246.3 6 247 18.5
2008-09-08 10:05:35 51°11.599 2°28.638 246.1 6.2 250 18.6
2008-09-08 10:06:35 51°11.559 2°28.486 246 6.2 248 18.9
2008-09-08 10:07:36 51°11.523 2°28.328 250.4 6.2 253 19.1
2008-09-08 10:08:35 51°11.495 2°28.172 254.2 6.2 257 19.1
2008-09-08 10:09:35 51°11.482 2°28.013 272.5 6 274 17.4
2008-09-08 10:10:35 51°11.517 2°27.867 296.9 6 296 15.1
2008-09-08 10:11:36 51°11.559 2°27.719 292.8 6 295 12.5
2008-09-08 10:12:35 51°11.599 2°27.576 292.4 6 292 11
2008-09-08 10:13:35 51°11.642 2°27.434 294.3 5.9 299 10.4
2008-09-08 10:14:36 51°11.7 2°27.314 321.3 5.6 324 9.6
2008-09-08 10:15:35 51°11.785 2°27.26 339.4 5.7 339 9.1
2008-09-08 10:16:35 51°11.873 2°27.203 336.6 5.7 337 8.2
2008-09-08 10:17:35 51°11.962 2°27.143 338.3 5.9 337 9.1
2008-09-08 10:18:36 51°12.059 2°27.111 354.8 5.9 355 9.6
2008-09-08 10:19:36 51°12.156 2°27.102 356.9 5.8 357 10.9
2008-09-08 10:20:35 51°12.252 2°27.093 358.3 5.8 357 12.3
2008-09-08 10:21:36 51°12.349 2°27.106 13 5.8 13 14.1
2008-09-08 10:22:35 51°12.441 2°27.146 17.3 5.8 18 16
2008-09-08 10:23:35 51°12.532 2°27.198 22.2 5.8 20 17.6
2008-09-08 10:24:35 51°12.619 2°27.26 27 5.7 27 20.1
2008-09-08 10:25:35 51°12.698 2°27.345 39.1 5.7 39 20.9
2008-09-08 10:26:36 51°12.774 2°27.44 38.6 5.6 39 20.8
2008-09-08 10:27:35 51°12.853 2°27.534 37.1 6.6 37 22.3
2008-09-08 10:28:35 51°12.954 2°27.653 38.3 8.7 39 21.7
2008-09-08 10:29:35 51°13.092 2°27.822 37.6 11.5 33 22.5
2008-09-08 10:30:35 51°13.249 2°28.012 36.4 11.8 35 21.6
2008-09-08 10:31:35 51°13.41 2°28.2 37.3 11.8 36 20.3
2008-09-08 10:32:35 51°13.569 2°28.386 37 11.7 36 19.3
2008-09-08 10:33:35 51°13.731 2°28.567 36.5 11.9 36 19.7
2008-09-08 10:34:35 51°13.887 2°28.762 42.2 11.8 40 19.9
2008-09-08 10:35:35 51°14.034 2°28.969 43.1 11.7 42 19
2008-09-08 10:36:35 51°14.183 2°29.179 40.9 12 39 19.5
2008-09-08 10:37:35 51°14.332 2°29.388 42.1 11.9 41 18.7
2008-09-08 10:38:35 51°14.481 2°29.601 43 12 41 20
2008-09-08 10:39:35 51°14.631 2°29.812 41.5 12 41 20.6
2008-09-08 10:40:34 51°14.777 2°30.02 42.7 12.1 43 20
2008-09-08 10:41:35 51°14.93 2°30.231 41.4 11.9 40 22.6
2008-09-08 10:42:35 51°15.08 2°30.439 42.4 12.2 42 23.6
2008-09-08 10:43:35 51°15.23 2°30.647 41.1 11.8 40 23.8
2008-09-08 10:44:35 51°15.365 2°30.877 51.4 11.9 51 22.7
2008-09-08 10:45:34 51°15.486 2°31.12 50.7 11.8 51 23.1
2008-09-08 10:46:34 51°15.6 2°31.378 55.4 12 55 23.5
2008-09-08 10:47:35 51°15.695 2°31.661 68.1 11.8 68 24
2008-09-08 10:48:35 51°15.763 2°31.956 70.3 11.8 69 21.3
2008-09-08 10:49:35 51°15.78 2°32.26 99.4 11.4 104 8.6
2008-09-08 10:50:35 51°15.68 2°32.5 134.9 10.4 141 7.8
2008-09-08 10:51:35 51°15.555 2°32.641 146 8.6 148 8.4
2008-09-08 10:52:35 51°15.43 2°32.714 162.5 7.6 162 8.5
2008-09-08 10:53:35 51°15.324 2°32.829 145.5 7.9 150 9.1
2008-09-08 10:54:35 51°15.221 2°32.9 131.1 4.7 131 10.7
2008-09-08 10:55:35 51°15.197 2°33.003 101.9 4.6 104 12
2008-09-08 10:56:35 51°15.163 2°33.199 103.6 10 105 16.7
2008-09-08 10:57:35 51°15.113 2°33.486 103.3 11.7 109 22.2
2008-09-08 10:58:35 51°15.057 2°33.784 104.4 11.8 106 24.4
2008-09-08 10:59:35 51°14.981 2°34.072 122.3 11.6 128 25.2
2008-09-08 11:00:35 51°14.857 2°34.315 129.1 11.9 128 25.3
2008-09-08 11:01:35 51°14.729 2°34.556 128.4 11.9 130 24.1
2008-09-08 11:02:35 51°14.609 2°34.805 118.2 11.8 120 20.9
2008-09-08 11:03:35 51°14.566 2°35.103 94.9 11.7 93 18.2
2008-09-08 11:04:35 51°14.516 2°35.404 108.8 11.7 113 18.4
2008-09-08 11:05:35 51°14.449 2°35.695 110.6 11.7 112 15.7
2008-09-08 11:06:35 51°14.337 2°35.942 134.1 11.6 137 11.6
2008-09-08 11:07:35 51°14.193 2°36.145 135.9 11.6 138 11.7
2008-09-08 11:08:35 51°14.053 2°36.355 133.4 11.5 136 13.2
2008-09-08 11:09:35 51°13.913 2°36.566 132.3 11.5 134 17
2008-09-08 11:10:35 51°13.774 2°36.779 132.8 11.6 137 19.3
2008-09-08 11:11:35 51°13.635 2°36.995 133.5 11.8 134 16.9
2008-09-08 11:12:35 51°13.499 2°37.212 132.9 11.3 138 7.9
2008-09-08 11:13:35 51°13.365 2°37.422 135.9 11.3 140 8.4
2008-09-08 11:14:35 51°13.25 2°37.542 150.2 6.5 154 9.3
2008-09-08 11:15:36 51°13.164 2°37.614 141.4 5.2 147 10.6
2008-09-08 11:16:35 51°13.103 2°37.685 137.8 3.6 142 11.5
2008-09-08 11:17:35 51°13.071 2°37.711 164.1 1.2 163 11.7
2008-09-08 11:18:35 51°13.056 2°37.718 174.6 0.7 166 11.8
2008-09-08 11:19:35 51°13.047 2°37.723 176.6 0.5 161 11.8
2008-09-08 11:20:35 51°13.042 2°37.731 171.4 0.5 102 12
2008-09-08 11:21:35 51°13.046 2°37.736 156 0.5 12 11.9
2008-09-08 11:22:35 51°13.04 2°37.745 157.1 1.6 159 12.1
2008-09-08 11:23:35 51°13.003 2°37.742 202.5 2.5 204 11.9
2008-09-08 11:24:35 51°12.973 2°37.686 253.5 2.1 248 11.8
2008-09-08 11:25:35 51°12.967 2°37.663 278.6 0.3 221 11.8
2008-09-08 11:26:35 51°12.966 2°37.665 310.4 0.4 95 11.8
2008-09-08 11:27:35 51°12.965 2°37.673 338.9 0.2 94 12
2008-09-08 11:28:35 51°12.971 2°37.676 349.3 0.6 358 11.7
2008-09-08 11:29:35 51°12.98 2°37.675 348.1 0.5 352 11.9
2008-09-08 11:30:35 51°12.985 2°37.676 348.7 0.1 25 11.7
2008-09-08 11:31:35 51°12.987 2°37.68 351.1 0.3 91 11.9
2008-09-08 11:32:35 51°12.988 2°37.684 352.6 0.2 355 11.9
2008-09-08 11:33:35 51°12.993 2°37.686 348.1 0.2 10 11.9
2008-09-08 11:34:35 51°12.995 2°37.689 346.9 0.1 67 11.8
2008-09-08 11:35:35 51°12.996 2°37.694 346.5 0.1 81 11.8
2008-09-08 11:36:35 51°12.999 2°37.696 346.9 0.3 29 11.9
2008-09-08 11:37:35 51°13.002 2°37.7 349 0.3 49 12.1
2008-09-08 11:38:35 51°13.002 2°37.704 350.8 0.2 127 12.4
2008-09-08 11:39:35 51°13.001 2°37.71 357.7 0.3 77 12.7
2008-09-08 11:40:35 51°13.002 2°37.715 356.6 0.3 65 12.6
2008-09-08 11:41:35 51°13.004 2°37.721 355 0.2 79 12.4
2008-09-08 11:42:35 51°13.004 2°37.727 353.4 0.3 102 11.7
2008-09-08 11:43:35 51°13.003 2°37.731 352.5 0.1 174 11.8
2008-09-08 11:44:35 51°13.001 2°37.734 350.1 0.2 115 11.7
2008-09-08 11:45:35 51°13.018 2°37.74 18.7 3.3 24 12
2008-09-08 11:46:36 51°13.068 2°37.873 70.2 7.6 68 12.3
2008-09-08 11:47:35 51°13.124 2°38.087 66.2 9.5 67 13
2008-09-08 11:48:35 51°13.183 2°38.328 69.6 10.2 71 13.3
2008-09-08 11:49:35 51°13.247 2°38.59 68.6 10.8 70 13.6
2008-09-08 11:50:35 51°13.315 2°38.856 67.4 11 66 12
2008-09-08 11:51:35 51°13.383 2°39.128 68.6 11.2 70 14.1
2008-09-08 11:52:35 51°13.448 2°39.408 71.2 11.3 72 14.1
2008-09-08 11:53:35 51°13.511 2°39.695 71.7 11.4 69 14
2008-09-08 11:54:35 51°13.573 2°39.978 70.3 11.3 69 14.5
2008-09-08 11:55:35 51°13.638 2°40.264 69.6 11.3 72 14.8
2008-09-08 11:56:35 51°13.7 2°40.55 70.4 11.4 71 14.5
2008-09-08 11:57:35 51°13.764 2°40.836 70.4 11.5 71 15.5
2008-09-08 11:58:35 51°13.825 2°41.124 71 11.5 72 16
2008-09-08 11:59:35 51°13.889 2°41.41 68.7 11.5 70 16.2
2008-09-08 12:00:35 51°13.952 2°41.694 70.6 11.4 72 16.1
2008-09-08 12:01:35 51°14.012 2°41.979 69.6 11.3 73 16
2008-09-08 12:02:35 51°14.071 2°42.267 71.7 11.5 70 15.8
2008-09-08 12:03:35 51°14.137 2°42.551 68.5 11.5 70 15.6
2008-09-08 12:04:35 51°14.202 2°42.835 69.2 11.6 72 15.4
2008-09-08 12:05:35 51°14.263 2°43.122 70.7 11.3 72 15.6
2008-09-08 12:06:35 51°14.325 2°43.407 70.9 11.4 72 15.6
2008-09-08 12:07:35 51°14.385 2°43.694 71.8 11.4 70 14.9
2008-09-08 12:08:35 51°14.449 2°43.984 69.6 11.5 71 14.5
2008-09-08 12:09:35 51°14.515 2°44.267 68.1 11.4 71 14
2008-09-08 12:10:35 51°14.574 2°44.555 73.1 11.4 74 13.6
2008-09-08 12:11:35 51°14.618 2°44.851 78 11.2 81 12.6
2008-09-08 12:12:35 51°14.644 2°45.151 82.1 11.5 82 11.2
2008-09-08 12:13:35 51°14.673 2°45.449 79.7 11.1 83 10.3
2008-09-08 12:14:35 51°14.703 2°45.746 79.7 11.4 80 9
2008-09-08 12:15:35 51°14.739 2°46.04 76.9 11.2 78 8.2
2008-09-08 12:16:35 51°14.769 2°46.338 81.2 11.4 83 8.6
2008-09-08 12:17:35 51°14.789 2°46.641 87.4 11.5 89 9.4
2008-09-08 12:18:35 51°14.79 2°46.946 88.5 11.6 89 11.5
2008-09-08 12:19:35 51°14.79 2°47.253 86.4 11.4 88 12.4
2008-09-08 12:20:35 51°14.787 2°47.558 88.6 11.6 91 12.2
2008-09-08 12:21:35 51°14.781 2°47.859 88.6 11.3 91 12.4
2008-09-08 12:22:35 51°14.777 2°48.163 89.1 11.4 93 11.4
2008-09-08 12:23:35 51°14.773 2°48.466 87.7 11.4 88 11.5
2008-09-08 12:24:35 51°14.772 2°48.774 87.9 11.6 92 11.8
2008-09-08 12:25:35 51°14.769 2°49.081 89 11.6 92 11.9
2008-09-08 12:26:35 51°14.769 2°49.386 89.2 11.3 90 12.1
2008-09-08 12:27:35 51°14.769 2°49.689 89.3 11.4 89 11.8
2008-09-08 12:28:35 51°14.763 2°49.992 90.5 11.6 92 11.5
2008-09-08 12:29:35 51°14.758 2°50.298 89.4 11.6 92 11.5
2008-09-08 12:30:35 51°14.756 2°50.602 87.4 11.5 89 11.2
2008-09-08 12:31:35 51°14.761 2°50.907 86.3 11.4 86 10.9
2008-09-08 12:32:35 51°14.757 2°51.208 89.9 11.3 93 10.5
2008-09-08 12:33:35 51°14.757 2°51.513 86.6 11.6 90 10.2
2008-09-08 12:34:35 51°14.756 2°51.817 91.5 11.5 93 9.8
2008-09-08 12:35:35 51°14.732 2°52.119 95.5 11.5 98 9.4
2008-09-08 12:36:35 51°14.714 2°52.421 91.6 11.3 92 9.2
2008-09-08 12:37:35 51°14.699 2°52.724 92.4 11.6 95 9
2008-09-08 12:38:35 51°14.677 2°53.019 93.3 11.1 96 8.8
2008-09-08 12:39:35 51°14.66 2°53.319 94.2 11.5 97 8.4
2008-09-08 12:40:35 51°14.638 2°53.624 95.7 11.6 98 8
2008-09-08 12:41:35 51°14.601 2°53.928 99.9 12 101 11
2008-09-08 12:42:35 51°14.552 2°54.231 101.5 11.6 102 10.2
2008-09-08 12:43:35 51°14.5 2°54.527 106.4 11.7 111 10.3
2008-09-08 12:44:35 51°14.425 2°54.813 112 12 114 10.9
2008-09-08 12:45:35 51°14.338 2°55.096 118.5 12.1 123 10.9
2008-09-08 12:46:39 51°14.202 2°55.339 141.2 10.5 140 -999
2008-09-08 12:47:39 51°14.079 2°55.451 154.9 6.9 156 -999
2008-09-08 12:48:40 51°13.966 2°55.533 155.5 7.6 156 -999
2008-09-08 12:49:39 51°13.862 2°55.607 154.9 6.3 156 -999
2008-09-08 12:50:39 51°13.775 2°55.684 141.4 5.8 144 -999
2008-09-08 12:51:39 51°13.707 2°55.788 126.2 5.3 128 -999
2008-09-08 12:52:39 51°13.661 2°55.893 122.5 4.4 123 -999
2008-09-08 12:53:39 51°13.637 2°55.984 104 3 106 -999
2008-09-08 12:54:39 51°13.628 2°56.036 119 1.1 115 -999
2008-09-08 12:55:39 51°13.622 2°56.046 118.9 0.3 118 -999
2008-09-08 12:56:39 51°13.622 2°56.049 111 0.1 359 -999
2008-09-08 12:57:39 51°13.623 2°56.049 122.4 -999 233 -999
2008-09-08 12:58:39 51°13.623 2°56.048 122 0.1 44 -999